createdAt,value
2023-03-02T00:01:48.014Z,11.25
2023-03-02T00:04:20.983Z,13.57
2023-03-02T00:06:49.084Z,12.05
2023-03-02T00:09:16.015Z,12.85
2023-03-02T00:11:43.321Z,12.35
2023-03-02T00:14:09.869Z,13.95
2023-03-02T00:16:36.517Z,13.10
2023-03-02T00:19:03.302Z,12.95
2023-03-02T00:21:29.873Z,13.45
2023-03-02T00:23:56.402Z,13.43
2023-03-02T00:26:22.974Z,15.25
2023-03-02T00:28:50.065Z,15.88
2023-03-02T00:31:16.902Z,15.27
2023-03-02T00:33:43.783Z,16.30
2023-03-02T00:36:17.970Z,15.23
2023-03-02T00:38:44.794Z,15.70
2023-03-02T00:41:12.732Z,14.13
2023-03-02T00:43:39.608Z,14.90
2023-03-02T00:46:15.129Z,14.98
2023-03-02T00:48:41.806Z,15.55
2023-03-02T00:51:09.496Z,12.93
2023-03-02T00:53:36.872Z,15.27
2023-03-02T00:56:04.931Z,14.25
2023-03-02T00:58:31.827Z,14.07
2023-03-02T01:00:58.909Z,13.82
2023-03-02T01:03:25.799Z,15.32
2023-03-02T01:05:55.435Z,14.43
2023-03-02T01:08:25.215Z,15.57
2023-03-02T01:10:54.318Z,13.77
2023-03-02T01:13:21.232Z,13.70
2023-03-02T01:15:47.880Z,14.90
2023-03-02T01:18:14.849Z,15.30
2023-03-02T01:20:41.424Z,14.50
2023-03-02T01:23:08.160Z,13.48
2023-03-02T01:25:34.707Z,14.15
2023-03-02T01:28:01.125Z,13.85
2023-03-02T01:30:27.614Z,14.35
2023-03-02T01:32:54.290Z,15.30
2023-03-02T01:35:20.838Z,14.57
2023-03-02T01:37:47.437Z,13.35
2023-03-02T01:40:14.496Z,12.57
2023-03-02T01:42:47.662Z,13.80
2023-03-02T01:45:44.848Z,13.60
2023-03-02T01:48:13.829Z,13.70
2023-03-02T01:50:40.550Z,13.65
2023-03-02T01:53:07.861Z,13.43
2023-03-02T01:55:38.947Z,13.80
2023-03-02T01:58:06.654Z,15.40
2023-03-02T02:00:37.395Z,13.77
2023-03-02T02:03:09.138Z,16.13
2023-03-02T02:05:43.854Z,14.73
2023-03-02T02:08:10.631Z,13.77
2023-03-02T02:10:38.415Z,14.48
2023-03-02T02:13:08.964Z,13.85
2023-03-02T02:15:35.546Z,13.13
2023-03-02T02:18:02.113Z,14.05
2023-03-02T02:20:39.697Z,13.13
2023-03-02T02:23:26.449Z,13.68
2023-03-02T02:25:55.951Z,12.82
2023-03-02T02:28:30.249Z,15.40
2023-03-02T02:31:41.539Z,12.68
2023-03-02T02:34:22.567Z,12.50
2023-03-02T02:39:25.624Z,13.07
2023-03-02T02:41:56.626Z,13.40
2023-03-02T02:44:23.150Z,11.35
2023-03-02T02:46:49.637Z,14.10
2023-03-02T02:49:35.259Z,13.95
2023-03-02T02:52:03.933Z,13.73
2023-03-02T02:54:31.942Z,13.13
2023-03-02T02:57:01.536Z,14.00
2023-03-02T02:59:39.892Z,11.70
2023-03-02T03:02:06.963Z,13.07
2023-03-02T03:04:33.555Z,12.55
2023-03-02T03:07:02.479Z,11.85
2023-03-02T03:12:01.701Z,13.20
2023-03-02T03:14:36.595Z,12.57
2023-03-02T03:17:03.214Z,12.55
2023-03-02T03:19:32.770Z,12.52
2023-03-02T03:22:01.378Z,12.45
2023-03-02T03:24:30.382Z,13.18
2023-03-02T03:26:57.491Z,11.98
2023-03-02T03:29:26.556Z,11.90
2023-03-02T03:31:55.449Z,12.35
2023-03-02T03:36:49.061Z,11.77
2023-03-02T03:39:16.844Z,12.48
2023-03-02T03:41:44.412Z,11.90
2023-03-02T03:44:11.925Z,11.82
2023-03-02T03:46:38.985Z,11.73
2023-03-02T03:49:05.965Z,12.07
2023-03-02T03:51:35.521Z,11.38
2023-03-02T03:54:08.124Z,11.50
2023-03-02T03:56:41.398Z,11.25
2023-03-02T03:59:10.229Z,11.70
2023-03-02T04:01:45.615Z,12.15
2023-03-02T04:04:22.412Z,10.95
2023-03-02T04:06:49.438Z,11.75
2023-03-02T04:09:18.108Z,11.38
2023-03-02T04:11:46.942Z,11.38
2023-03-02T04:16:41.147Z,10.52
2023-03-02T04:19:11.063Z,11.50
2023-03-02T04:21:45.150Z,11.10
2023-03-02T04:24:12.668Z,11.18
2023-03-02T04:26:40.832Z,10.90
2023-03-02T04:29:07.739Z,11.05
2023-03-02T04:31:34.411Z,11.48
2023-03-02T04:34:04.193Z,10.60
2023-03-02T04:36:33.180Z,11.20
2023-03-02T04:38:59.763Z,11.00
2023-03-02T04:41:26.370Z,12.25
2023-03-02T04:43:52.867Z,10.60
2023-03-02T04:46:22.925Z,12.27
2023-03-02T04:48:49.633Z,12.95
2023-03-02T04:51:31.014Z,10.57
2023-03-02T04:54:01.646Z,11.98
2023-03-02T04:56:29.852Z,11.63
2023-03-02T04:58:56.628Z,12.05
2023-03-02T05:01:24.697Z,11.45
2023-03-02T05:03:51.629Z,11.02
2023-03-02T05:06:18.384Z,10.02
2023-03-02T05:08:45.461Z,11.18
2023-03-02T05:11:22.375Z,11.00
2023-03-02T05:13:50.964Z,12.50
2023-03-02T05:16:18.050Z,11.10
2023-03-02T05:18:44.665Z,12.02
2023-03-02T05:21:11.803Z,11.95
2023-03-02T05:23:38.403Z,11.40
2023-03-02T05:26:05.086Z,11.95
2023-03-02T05:28:31.735Z,11.95
2023-03-02T05:30:58.275Z,12.65
2023-03-02T05:33:24.910Z,11.70
2023-03-02T05:35:51.502Z,11.75
2023-03-02T05:38:18.202Z,11.25
2023-03-02T05:40:45.348Z,11.02
2023-03-02T05:43:16.540Z,11.70
2023-03-02T05:45:43.175Z,11.20
2023-03-02T05:48:12.177Z,12.07
2023-03-02T05:50:38.850Z,12.65
2023-03-02T05:53:05.473Z,11.52
2023-03-02T05:55:37.228Z,11.80
2023-03-02T05:58:09.211Z,12.40
2023-03-02T06:00:36.109Z,12.85
2023-03-02T06:03:02.810Z,13.20
2023-03-02T06:05:29.390Z,12.88
2023-03-02T06:07:56.204Z,11.98
2023-03-02T06:10:22.951Z,12.38
2023-03-02T06:12:49.429Z,11.90
2023-03-02T06:15:15.964Z,12.65
2023-03-02T06:17:42.800Z,12.85
2023-03-02T06:20:11.258Z,12.77
2023-03-02T06:22:45.156Z,12.20
2023-03-02T06:25:18.013Z,12.60
2023-03-02T06:27:45.345Z,11.35
2023-03-02T06:30:15.081Z,12.30
2023-03-02T06:32:42.474Z,11.00
2023-03-02T06:35:10.708Z,12.85
2023-03-02T06:37:37.720Z,12.02
2023-03-02T06:40:10.272Z,11.75
2023-03-02T06:42:38.800Z,11.75
2023-03-02T06:45:06.423Z,11.38
2023-03-02T06:47:33.480Z,12.18
2023-03-02T06:50:00.514Z,11.13
2023-03-02T06:52:29.790Z,11.32
2023-03-02T06:54:56.673Z,10.30
2023-03-02T06:57:23.494Z,11.93
2023-03-02T06:59:50.004Z,12.57
2023-03-02T07:02:16.554Z,10.57
2023-03-02T07:04:43.192Z,12.38
2023-03-02T07:07:09.789Z,12.02
2023-03-02T07:09:36.356Z,10.50
2023-03-02T07:12:02.851Z,10.90
2023-03-02T07:14:29.359Z,12.18
2023-03-02T07:16:57.484Z,11.15
2023-03-02T07:19:24.147Z,11.05
2023-03-02T07:21:50.745Z,12.40
2023-03-02T07:24:17.438Z,12.55
2023-03-02T07:26:43.972Z,13.20
2023-03-02T07:29:10.476Z,12.70
2023-03-02T07:31:37.014Z,13.18
2023-03-02T07:34:03.576Z,11.90
2023-03-02T07:36:30.237Z,11.68
2023-03-02T07:38:57.616Z,12.32
2023-03-02T07:41:24.211Z,11.73
2023-03-02T07:43:50.737Z,13.13
2023-03-02T07:46:17.316Z,12.07
2023-03-02T07:48:44.189Z,11.75
2023-03-02T07:51:10.824Z,11.77
2023-03-02T07:53:37.715Z,11.75
2023-03-02T07:56:09.561Z,13.10
2023-03-02T07:58:36.849Z,11.32
2023-03-02T08:01:04.418Z,11.02
2023-03-02T08:03:30.969Z,11.32
2023-03-02T08:05:57.445Z,12.30
2023-03-02T08:08:24.305Z,11.63
2023-03-02T08:10:50.883Z,12.07
2023-03-02T08:13:17.377Z,10.15
2023-03-02T08:15:44.003Z,10.32
2023-03-02T08:18:10.523Z,10.00
2023-03-02T08:20:37.534Z,12.65
2023-03-02T08:23:04.049Z,10.65
2023-03-02T08:25:30.597Z,10.65
2023-03-02T08:27:57.175Z,10.80
2023-03-02T08:30:23.735Z,10.05
2023-03-02T08:32:50.293Z,10.75
2023-03-02T08:35:17.467Z,10.07
2023-03-02T08:37:44.011Z,10.35
2023-03-02T08:40:11.166Z,10.27
2023-03-02T08:42:37.673Z,10.10
2023-03-02T08:45:04.605Z,10.35
2023-03-02T08:47:32.504Z,10.02
2023-03-02T08:49:59.034Z,9.43
2023-03-02T08:52:25.701Z,10.52
2023-03-02T08:54:52.327Z,8.85
2023-03-02T08:57:20.398Z,10.65
2023-03-02T08:59:47.890Z,9.60
2023-03-02T09:02:14.394Z,9.35
2023-03-02T09:04:41.260Z,10.40
2023-03-02T09:07:07.846Z,10.60
2023-03-02T09:09:34.413Z,10.90
2023-03-02T09:12:00.955Z,9.52
2023-03-02T09:14:27.973Z,11.20
2023-03-02T09:16:54.745Z,8.98
2023-03-02T09:19:21.432Z,10.13
2023-03-02T09:21:48.127Z,10.18
2023-03-02T09:24:14.674Z,9.65
2023-03-02T09:26:41.302Z,11.55
2023-03-02T09:29:07.917Z,9.40
2023-03-02T09:31:35.730Z,10.55
2023-03-02T09:34:02.596Z,9.45
2023-03-02T09:36:31.218Z,10.50
2023-03-02T09:41:47.987Z,9.43
2023-03-02T09:44:37.403Z,9.88
2023-03-02T09:47:09.864Z,9.68
2023-03-02T09:49:57.972Z,9.80
2023-03-02T09:52:38.414Z,9.30
2023-03-02T09:55:22.343Z,8.93
2023-03-02T09:57:49.299Z,9.52
2023-03-02T10:00:28.997Z,9.43
2023-03-02T10:03:11.432Z,9.60
2023-03-02T10:08:24.620Z,9.85
2023-03-02T10:11:18.768Z,8.95
2023-03-02T10:13:56.502Z,8.93
2023-03-02T10:16:38.715Z,9.00
2023-03-02T10:19:26.718Z,8.02
2023-03-02T10:22:13.188Z,8.27
2023-03-02T10:25:16.674Z,8.60
2023-03-02T10:27:50.394Z,8.40
2023-03-02T10:30:25.551Z,8.75
2023-03-02T10:32:52.938Z,8.70
2023-03-02T10:35:28.166Z,8.43
2023-03-02T10:38:10.408Z,8.13
2023-03-02T10:40:48.466Z,8.00
2023-03-02T10:43:27.596Z,9.57
2023-03-02T10:46:00.433Z,8.18
2023-03-02T10:48:27.435Z,7.72
2023-03-02T10:50:56.442Z,8.45
2023-03-02T10:53:22.943Z,8.27
2023-03-02T10:55:52.393Z,8.18
2023-03-02T10:58:26.150Z,7.45
2023-03-02T11:01:01.070Z,7.22
2023-03-02T11:03:29.053Z,6.80
2023-03-02T11:05:56.725Z,7.35
2023-03-02T11:08:26.856Z,7.28
2023-03-02T11:10:53.843Z,7.32
2023-03-02T11:13:35.065Z,7.90
2023-03-02T11:16:05.183Z,7.50
2023-03-02T11:18:39.730Z,7.93
2023-03-02T11:21:22.367Z,7.50
2023-03-02T11:24:02.224Z,7.25
2023-03-02T11:26:34.086Z,7.53
2023-03-02T11:29:25.603Z,7.20
2023-03-02T11:32:01.737Z,6.75
2023-03-02T11:34:42.746Z,6.93
2023-03-02T11:37:24.459Z,7.22
2023-03-02T11:39:59.604Z,6.97
2023-03-02T11:42:26.117Z,6.70
2023-03-02T11:44:52.870Z,6.60
2023-03-02T11:47:21.212Z,6.22
2023-03-02T11:50:01.987Z,6.00
2023-03-02T11:52:32.910Z,5.07
2023-03-02T11:55:24.901Z,5.95
2023-03-02T12:03:06.829Z,6.43
2023-03-02T12:05:36.959Z,6.25
2023-03-02T12:08:28.308Z,6.40
2023-03-02T12:11:18.849Z,5.55
2023-03-02T12:13:49.699Z,7.32
2023-03-02T12:16:22.418Z,5.90
2023-03-02T12:18:53.074Z,5.72
2023-03-02T12:21:24.185Z,5.72
2023-03-02T12:23:50.936Z,6.47
2023-03-02T12:26:20.257Z,5.80
2023-03-02T12:29:13.881Z,5.72
2023-03-02T12:31:43.584Z,6.03
2023-03-02T12:34:39.823Z,5.30
2023-03-02T12:37:14.430Z,5.13
2023-03-02T12:42:35.508Z,5.63
2023-03-02T12:45:11.215Z,5.28
2023-03-02T12:47:41.242Z,5.25
2023-03-02T12:50:20.031Z,4.45
2023-03-02T12:53:01.014Z,4.68
2023-03-02T12:55:27.602Z,4.97
2023-03-02T12:57:56.639Z,5.50
2023-03-02T13:00:26.973Z,4.88
2023-03-02T13:02:56.638Z,4.57
2023-03-02T13:05:29.600Z,4.68
2023-03-02T13:08:04.336Z,4.60
2023-03-02T13:10:43.788Z,4.47
2023-03-02T13:13:21.499Z,4.45
2023-03-02T13:15:55.234Z,4.82
2023-03-02T13:18:24.023Z,4.70
2023-03-02T13:20:51.912Z,4.35
2023-03-02T13:23:19.771Z,4.55
2023-03-02T13:25:56.665Z,5.05
2023-03-02T13:28:35.145Z,7.05
2023-03-02T13:31:16.592Z,7.85
2023-03-02T13:33:45.395Z,7.47
2023-03-02T13:36:23.593Z,6.75
2023-03-02T13:38:59.275Z,6.82
2023-03-02T13:41:31.658Z,7.97
2023-03-02T13:43:59.481Z,8.52
2023-03-02T13:46:35.665Z,8.85
2023-03-02T13:49:10.192Z,7.70
2023-03-02T13:51:46.270Z,8.70
2023-03-02T13:54:18.858Z,8.35
2023-03-02T13:56:45.365Z,7.63
2023-03-02T13:59:18.125Z,8.05
2023-03-02T14:01:44.924Z,8.23
2023-03-02T14:04:13.304Z,8.15
2023-03-02T14:09:06.553Z,7.75
2023-03-02T14:11:37.504Z,8.23
2023-03-02T14:14:06.314Z,7.68
2023-03-02T14:16:36.089Z,7.75
2023-03-02T14:19:03.655Z,7.78
2023-03-02T14:21:30.421Z,7.70
2023-03-02T14:23:58.914Z,7.20
2023-03-02T14:26:31.592Z,7.40
2023-03-02T14:29:05.471Z,7.95
2023-03-02T14:36:33.141Z,7.53
2023-03-02T14:39:03.751Z,7.15
2023-03-02T14:41:31.498Z,7.40
2023-03-02T14:43:58.193Z,7.68
2023-03-02T14:46:24.718Z,7.95
2023-03-02T14:48:51.320Z,7.85
2023-03-02T14:51:25.774Z,8.18
2023-03-02T14:53:56.185Z,6.97
2023-03-02T14:56:23.585Z,7.68
2023-03-02T14:58:52.130Z,7.10
2023-03-02T15:01:20.122Z,7.75
2023-03-02T15:03:46.782Z,7.53
2023-03-02T15:06:26.184Z,7.40
2023-03-02T15:08:54.087Z,7.25
2023-03-02T15:11:20.578Z,6.95
2023-03-02T15:13:47.277Z,6.82
2023-03-02T15:16:14.592Z,7.95
2023-03-02T15:18:41.347Z,7.40
2023-03-02T15:21:14.622Z,7.25
2023-03-02T15:23:41.192Z,8.25
2023-03-02T15:26:07.837Z,8.20
2023-03-02T15:28:34.487Z,8.98
2023-03-02T15:31:12.519Z,9.25
2023-03-02T15:33:40.084Z,9.48
2023-03-02T15:36:07.304Z,8.82
2023-03-02T15:38:35.823Z,9.82
2023-03-02T15:41:13.477Z,9.27
2023-03-02T15:43:40.091Z,9.02
2023-03-02T15:46:09.421Z,8.70
2023-03-02T15:48:36.903Z,8.20
2023-03-02T15:51:06.284Z,8.00
2023-03-02T15:53:37.440Z,8.00
2023-03-02T15:56:11.151Z,7.93
2023-03-02T15:58:37.865Z,7.80
2023-03-02T16:01:08.607Z,7.40
2023-03-02T16:03:35.221Z,7.60
2023-03-02T16:06:01.999Z,7.10
2023-03-02T16:08:29.061Z,6.90
2023-03-02T16:11:03.974Z,6.72
2023-03-02T16:13:30.790Z,6.93
2023-03-02T16:16:00.226Z,7.78
2023-03-02T16:18:26.796Z,7.65
2023-03-02T16:20:53.242Z,7.88
2023-03-02T16:23:19.929Z,7.95
2023-03-02T16:25:50.014Z,8.00
2023-03-02T16:28:18.301Z,9.00
2023-03-02T16:30:46.167Z,8.38
2023-03-02T16:33:16.287Z,8.13
2023-03-02T16:35:43.165Z,9.00
2023-03-02T16:38:09.895Z,9.50
2023-03-02T16:40:38.715Z,8.88
2023-03-02T16:43:08.840Z,8.95
2023-03-02T16:45:35.687Z,8.63
2023-03-02T16:48:03.812Z,9.55
2023-03-02T16:50:30.877Z,9.68
2023-03-02T16:52:59.124Z,10.07
2023-03-02T16:55:25.966Z,9.63
2023-03-02T16:57:52.766Z,10.02
2023-03-02T17:00:21.460Z,10.00
2023-03-02T17:02:48.940Z,9.40
2023-03-02T17:05:19.120Z,9.45
2023-03-02T17:07:46.575Z,9.70
2023-03-02T17:10:21.456Z,9.48
2023-03-02T17:12:48.046Z,10.25
2023-03-02T17:15:14.947Z,9.93
2023-03-02T17:17:41.503Z,10.00
2023-03-02T17:20:10.166Z,12.52
2023-03-02T17:22:36.761Z,9.70
2023-03-02T17:25:04.810Z,9.68
2023-03-02T17:27:31.700Z,10.00
2023-03-02T17:29:58.246Z,9.68
2023-03-02T17:32:24.862Z,10.13
2023-03-02T17:34:51.397Z,9.30
2023-03-02T17:37:18.210Z,9.70
2023-03-02T17:39:44.801Z,8.77
2023-03-02T17:42:11.567Z,8.95
2023-03-02T17:44:40.139Z,9.63
2023-03-02T17:49:42.686Z,8.68
2023-03-02T17:52:09.342Z,8.73
2023-03-02T17:54:36.445Z,8.48
2023-03-02T17:57:04.170Z,8.77
2023-03-02T17:59:30.821Z,8.32
2023-03-02T18:01:57.391Z,9.43
2023-03-02T18:04:24.029Z,14.77
2023-03-02T18:06:52.441Z,20.50
2023-03-02T18:09:20.652Z,13.60
2023-03-02T18:11:47.585Z,9.07
2023-03-02T18:14:16.918Z,9.60
2023-03-02T18:16:43.590Z,8.52
2023-03-02T18:19:10.243Z,8.10
2023-03-02T18:21:38.511Z,9.55
2023-03-02T18:24:05.355Z,10.57
2023-03-02T18:26:32.036Z,8.60
2023-03-02T18:28:58.635Z,9.50
2023-03-02T18:31:25.467Z,9.57
2023-03-02T18:33:52.195Z,9.13
2023-03-02T18:36:18.948Z,8.82
2023-03-02T18:38:45.749Z,8.13
2023-03-02T18:41:13.722Z,8.63
2023-03-02T18:43:42.220Z,7.50
2023-03-02T18:46:26.404Z,6.85
2023-03-02T18:48:54.419Z,6.53
2023-03-02T18:51:23.675Z,7.28
2023-03-02T18:53:51.192Z,6.75
2023-03-02T18:56:18.074Z,6.10
2023-03-02T18:58:45.217Z,5.47
2023-03-02T19:01:12.260Z,7.85
2023-03-02T19:03:41.819Z,6.32
2023-03-02T19:06:08.853Z,6.28
2023-03-02T19:08:35.846Z,6.28
2023-03-02T19:11:04.854Z,6.88
2023-03-02T19:13:31.616Z,6.28
2023-03-02T19:15:58.671Z,6.18
2023-03-02T19:18:25.541Z,6.43
2023-03-02T19:20:54.397Z,6.38
2023-03-02T19:23:21.486Z,6.90
2023-03-02T19:25:48.281Z,7.82
2023-03-02T19:28:14.966Z,21.17
2023-03-02T19:30:41.862Z,19.80
2023-03-02T19:33:09.815Z,10.45
2023-03-02T19:35:37.813Z,13.15
2023-03-02T19:38:05.844Z,7.60
2023-03-02T19:40:32.616Z,8.25
2023-03-02T19:42:59.151Z,7.00
2023-03-02T19:45:29.899Z,8.65
2023-03-02T19:47:57.938Z,7.55
2023-03-02T19:50:25.882Z,7.45
2023-03-02T19:52:54.928Z,7.07
2023-03-02T19:55:22.434Z,7.82
2023-03-02T19:57:51.489Z,7.25
2023-03-02T20:00:19.392Z,7.88
2023-03-02T20:02:47.300Z,8.07
2023-03-02T20:05:13.915Z,7.70
2023-03-02T20:07:41.844Z,8.30
2023-03-02T20:10:09.929Z,7.63
2023-03-02T20:12:37.036Z,11.35
2023-03-02T20:15:05.630Z,8.40
2023-03-02T20:17:32.221Z,8.75
2023-03-02T20:20:01.019Z,8.13
2023-03-02T20:22:27.564Z,8.77
2023-03-02T20:24:54.592Z,8.75
2023-03-02T20:27:21.262Z,9.13
2023-03-02T20:29:48.370Z,8.52
2023-03-02T20:32:15.115Z,8.43
2023-03-02T20:34:43.105Z,9.15
2023-03-02T20:37:12.086Z,8.45
2023-03-02T20:39:40.627Z,8.90
2023-03-02T20:42:07.952Z,8.57
2023-03-02T20:44:35.398Z,9.20
2023-03-02T20:47:08.185Z,8.80
2023-03-02T20:49:36.649Z,9.48
2023-03-02T20:52:04.759Z,9.52
2023-03-02T20:54:35.597Z,10.15
2023-03-02T20:57:02.183Z,10.38
2023-03-02T20:59:28.852Z,17.02
2023-03-02T21:01:55.544Z,15.88
2023-03-02T21:04:22.422Z,11.00
2023-03-02T21:06:49.694Z,10.32
2023-03-02T21:09:17.951Z,10.27
2023-03-02T21:11:45.761Z,10.43
2023-03-02T21:14:14.255Z,11.13
2023-03-02T21:16:43.512Z,10.55
2023-03-02T21:19:16.205Z,10.63
2023-03-02T21:21:43.046Z,11.05
2023-03-02T21:24:18.545Z,10.98
2023-03-02T21:26:46.820Z,11.60
2023-03-02T21:29:17.946Z,11.38
2023-03-02T21:31:46.165Z,11.30
2023-03-02T21:34:13.561Z,11.60
2023-03-02T21:36:40.617Z,11.98
2023-03-02T21:39:08.592Z,13.65
2023-03-02T21:41:36.311Z,12.27
2023-03-02T21:44:05.776Z,11.20
2023-03-02T21:46:35.793Z,11.93
2023-03-02T21:49:02.854Z,11.73
2023-03-02T21:51:32.482Z,12.25
2023-03-02T21:53:59.197Z,12.57
2023-03-02T21:56:26.646Z,11.48
2023-03-02T21:58:56.197Z,12.20
2023-03-02T22:01:24.609Z,12.63
2023-03-02T22:03:51.474Z,12.43
2023-03-02T22:06:20.830Z,12.40
2023-03-02T22:08:47.661Z,11.82
2023-03-02T22:11:26.100Z,11.68
2023-03-02T22:13:56.438Z,12.82
2023-03-02T22:16:25.533Z,12.00
2023-03-02T22:18:57.113Z,12.00
2023-03-02T22:21:26.666Z,12.13
2023-03-02T22:24:13.744Z,11.90
2023-03-02T22:26:46.613Z,11.73
2023-03-02T22:29:26.083Z,11.95
2023-03-02T22:31:55.278Z,12.55
2023-03-02T22:34:28.666Z,11.60
2023-03-02T22:37:17.571Z,11.75
2023-03-02T22:39:44.995Z,11.63
2023-03-02T22:42:17.833Z,12.10
2023-03-02T22:44:50.457Z,11.65
2023-03-02T22:47:19.875Z,11.48
2023-03-02T22:49:47.373Z,10.88
2023-03-02T22:52:17.693Z,10.85
2023-03-02T22:54:45.647Z,11.15
2023-03-02T22:57:35.242Z,11.30
2023-03-02T23:00:14.092Z,10.45
2023-03-02T23:02:43.937Z,10.13
2023-03-02T23:05:27.467Z,9.07
2023-03-02T23:08:12.339Z,10.85
2023-03-02T23:10:40.685Z,10.10
2023-03-02T23:13:09.794Z,10.18
2023-03-02T23:15:36.766Z,9.55
2023-03-02T23:18:15.875Z,10.50
2023-03-02T23:20:42.465Z,10.07
2023-03-02T23:23:09.164Z,10.38
2023-03-02T23:25:35.669Z,9.55
2023-03-02T23:28:02.228Z,10.02
2023-03-02T23:30:28.958Z,9.55
2023-03-02T23:32:55.494Z,9.88
2023-03-02T23:35:22.114Z,9.90
2023-03-02T23:37:48.798Z,9.60
2023-03-02T23:40:15.641Z,9.18
2023-03-02T23:42:42.267Z,9.73
2023-03-02T23:45:09.479Z,10.40
2023-03-02T23:47:35.951Z,9.35
2023-03-02T23:50:02.881Z,9.35
2023-03-02T23:52:29.907Z,9.80
2023-03-02T23:54:56.459Z,8.60
2023-03-02T23:57:23.077Z,8.85
2023-03-02T23:59:49.562Z,9.27
